Arivaca, Arizona
Current Conditions -  °F | °C
As of 6:54 AM on Sunday 25 Jan 2015 (Local Time) from KOLS Reporting Station
Clear Clear  
Wind Chill: 42°   Ceiling: Unl
Heat Index: 45°   Visibility: 10mi
Dew Point: 16°   Wind: 6mph
Humidity: 31%   Direction: 40°NE
Pressure: 30.13"   Gusts: NA
Location:  31.57°N, 111.33°W
Report Text: KOLS 251354Z AUTO 04005KT 10SM CLR 07/M09 A3013 RMK AO2 SLP173 T00721089
Loading
Personal Weather Stations






























Interactive Weather Map New forecast layout! Learn more

10-Day Weather Forecast

Advertisements
Track Severe Weather on mobile